createdAt,value
2017-07-17T00:00:52.153Z,5.48
2017-07-17T00:01:52.451Z,5.55
2017-07-17T00:02:52.444Z,5.55
2017-07-17T00:03:52.432Z,5.52
2017-07-17T00:04:52.112Z,5.55
2017-07-17T00:05:51.781Z,5.58
2017-07-17T00:06:52.388Z,5.55
2017-07-17T00:07:52.379Z,5.63
2017-07-17T00:08:52.365Z,5.63
2017-07-17T00:09:52.042Z,5.7
2017-07-17T00:10:52.032Z,5.69
2017-07-17T00:11:52.319Z,5.73
2017-07-17T00:12:51.693Z,5.73
2017-07-17T00:13:51.994Z,5.78
2017-07-17T00:14:51.975Z,5.73
2017-07-17T00:15:51.963Z,5.73
2017-07-17T00:16:51.962Z,5.73
2017-07-17T00:17:52.258Z,5.74
2017-07-17T00:18:52.239Z,5.69
2017-07-17T00:19:52.233Z,5.66
2017-07-17T00:20:52.215Z,5.63
2017-07-17T00:21:51.897Z,5.75
2017-07-17T00:22:51.875Z,5.81
2017-07-17T00:23:51.863Z,5.88
2017-07-17T00:24:52.157Z,5.96
2017-07-17T00:25:52.155Z,5.98
2017-07-17T00:26:51.822Z,5.99
2017-07-17T00:27:51.821Z,6.02
2017-07-17T00:28:52.121Z,6.02
2017-07-17T00:29:52.093Z,6.08
2017-07-17T00:30:52.089Z,6.19
2017-07-17T00:31:52.075Z,6.01
2017-07-17T00:32:52.062Z,5.87
2017-07-17T00:33:52.057Z,5.74
2017-07-17T00:34:52.031Z,5.75
2017-07-17T00:35:51.716Z,5.67
2017-07-17T00:36:52.020Z,5.69
2017-07-17T00:37:51.693Z,5.75
2017-07-17T00:38:51.685Z,5.7
2017-07-17T00:39:51.673Z,5.65
2017-07-17T00:40:51.653Z,5.65
2017-07-17T00:41:51.643Z,5.69
2017-07-17T00:42:51.946Z,5.81
2017-07-17T00:43:51.918Z,5.8
2017-07-17T00:44:51.908Z,5.88
2017-07-17T00:45:51.904Z,6.08
2017-07-17T00:46:51.895Z,6.33
2017-07-17T00:47:51.887Z,6.48
2017-07-17T00:48:51.873Z,6.53
2017-07-17T00:49:51.852Z,6.75
2017-07-17T00:50:51.221Z,6.83
2017-07-17T00:51:51.832Z,6.83
2017-07-17T00:52:51.811Z,6.86
2017-07-17T00:53:51.805Z,6.86
2017-07-17T00:54:51.797Z,6.87
2017-07-17T00:55:51.791Z,6.79
2017-07-17T00:56:51.151Z,6.82
2017-07-17T00:57:51.762Z,6.89
2017-07-17T00:58:51.742Z,6.82
2017-07-17T00:59:51.738Z,6.87
2017-07-17T01:00:51.419Z,6.83
2017-07-17T01:01:51.724Z,6.72
2017-07-17T01:02:51.710Z,6.78
2017-07-17T01:03:51.708Z,6.87
2017-07-17T01:04:51.688Z,6.64
2017-07-17T01:05:51.668Z,6.79
2017-07-17T01:06:51.656Z,6.79
2017-07-17T01:07:51.656Z,6.71
2017-07-17T01:08:51.656Z,6.61
2017-07-17T01:09:51.635Z,6.57
2017-07-17T01:10:51.631Z,6.55
2017-07-17T01:11:51.602Z,6.6
2017-07-17T01:12:51.288Z,6.68
2017-07-17T01:13:51.283Z,6.65
2017-07-17T01:14:51.573Z,6.76
2017-07-17T01:15:51.562Z,6.65
2017-07-17T01:16:51.244Z,6.61
2017-07-17T01:17:51.543Z,6.64
2017-07-17T01:18:51.530Z,6.55
2017-07-17T01:19:51.208Z,6.5
2017-07-17T01:20:51.506Z,6.43
2017-07-17T01:21:50.871Z,6.54
2017-07-17T01:22:51.198Z,6.3
2017-07-17T01:23:50.858Z,6.4
2017-07-17T01:24:51.151Z,6.27
2017-07-17T01:25:51.454Z,6.27
2017-07-17T01:26:51.127Z,6.01
2017-07-17T01:27:51.430Z,6.03
2017-07-17T01:28:51.413Z,6.06
2017-07-17T01:29:51.444Z,6.1
2017-07-17T01:30:51.399Z,6.3
2017-07-17T01:31:51.378Z,6.42
2017-07-17T01:32:51.380Z,6.42
2017-07-17T01:33:51.370Z,6.53
2017-07-17T01:34:51.393Z,6.2
2017-07-17T01:35:51.032Z,6.03
2017-07-17T01:36:51.334Z,5.87
2017-07-17T01:37:51.314Z,5.73
2017-07-17T01:38:50.990Z,5.66
2017-07-17T01:39:51.284Z,5.65
2017-07-17T01:40:51.280Z,5.75
2017-07-17T01:41:51.270Z,5.78
2017-07-17T01:42:51.254Z,5.84
2017-07-17T01:43:51.239Z,5.98
2017-07-17T01:44:50.928Z,5.96
2017-07-17T01:45:50.905Z,6.01
2017-07-17T01:46:50.901Z,5.96
2017-07-17T01:47:51.194Z,6.03
2017-07-17T01:48:51.176Z,6.27
2017-07-17T01:49:51.182Z,6.38
2017-07-17T01:50:51.160Z,6.48
2017-07-17T01:51:51.146Z,6.55
2017-07-17T01:52:51.134Z,6.54
2017-07-17T01:53:51.126Z,6.55
2017-07-17T01:54:51.116Z,6.58
2017-07-17T01:55:51.094Z,6.6
2017-07-17T01:56:50.773Z,6.51
2017-07-17T01:57:51.087Z,6.5
2017-07-17T01:58:51.066Z,6.55
2017-07-17T02:00:04.702Z,6.65
2017-07-17T02:00:50.726Z,6.75
2017-07-17T02:01:51.035Z,6.94
2017-07-17T02:02:51.018Z,6.86
2017-07-17T02:03:50.699Z,6.87
2017-07-17T02:04:51.006Z,6.91
2017-07-17T02:05:50.986Z,6.89
2017-07-17T02:06:50.974Z,6.86
2017-07-17T02:07:50.959Z,6.83
2017-07-17T02:08:50.949Z,6.86
2017-07-17T02:09:50.940Z,6.87
2017-07-17T02:10:50.307Z,6.87
2017-07-17T02:11:50.925Z,6.86
2017-07-17T02:12:50.910Z,6.87
2017-07-17T02:13:50.586Z,6.79
2017-07-17T02:14:50.878Z,6.9
2017-07-17T02:15:50.875Z,7.01
2017-07-17T02:16:50.859Z,6.99
2017-07-17T02:17:50.549Z,7.01
2017-07-17T02:18:50.854Z,7.01
2017-07-17T02:19:50.828Z,6.96
2017-07-17T02:20:50.814Z,6.87
2017-07-17T02:21:50.801Z,6.94
2017-07-17T02:22:50.178Z,6.82
2017-07-17T02:23:50.171Z,6.87
2017-07-17T02:24:50.776Z,6.87
2017-07-17T02:25:50.771Z,6.83
2017-07-17T02:26:50.751Z,6.87
2017-07-17T02:27:50.739Z,6.97
2017-07-17T02:28:50.724Z,7
2017-07-17T02:29:50.715Z,7.04
2017-07-17T02:30:50.395Z,6.91
2017-07-17T02:31:50.688Z,7
2017-07-17T02:32:50.685Z,6.87
2017-07-17T02:33:50.674Z,6.97
2017-07-17T02:34:50.666Z,6.9
2017-07-17T02:36:03.973Z,6.96
2017-07-17T02:37:03.712Z,6.94
2017-07-17T02:37:50.319Z,6.87
2017-07-17T02:38:50.307Z,6.86
2017-07-17T02:39:50.609Z,6.93
2017-07-17T02:40:50.284Z,6.89
2017-07-17T02:41:50.273Z,6.91
2017-07-17T02:42:50.563Z,6.93
2017-07-17T02:43:50.254Z,6.9
2017-07-17T02:44:50.239Z,6.83
2017-07-17T02:45:50.230Z,6.73
2017-07-17T02:46:50.226Z,6.83
2017-07-17T02:47:50.510Z,6.82
2017-07-17T02:48:50.194Z,6.81
2017-07-17T02:49:50.499Z,6.86
2017-07-17T02:50:50.474Z,6.86
2017-07-17T02:51:50.473Z,6.86
2017-07-17T02:52:50.473Z,6.87
2017-07-17T02:53:50.454Z,6.91
2017-07-17T02:54:50.436Z,6.82
2017-07-17T02:55:50.429Z,6.83
2017-07-17T02:56:50.405Z,6.89
2017-07-17T02:57:50.401Z,6.93
2017-07-17T02:58:50.077Z,6.96
2017-07-17T02:59:50.385Z,7.09
2017-07-17T03:00:50.052Z,7.05
2017-07-17T03:01:50.056Z,7
2017-07-17T03:02:50.338Z,6.96
2017-07-17T03:03:50.335Z,6.97
2017-07-17T03:04:50.321Z,7
2017-07-17T03:05:50.306Z,7.04
2017-07-17T03:06:50.507Z,6.99
2017-07-17T03:07:50.287Z,6.99
2017-07-17T03:08:49.959Z,6.97
2017-07-17T03:09:49.957Z,6.96
2017-07-17T03:10:49.629Z,7.07
2017-07-17T03:11:50.442Z,7.12
2017-07-17T03:12:50.436Z,7.01
2017-07-17T03:13:50.217Z,7.01
2017-07-17T03:14:50.210Z,7
2017-07-17T03:15:50.198Z,7.07
2017-07-17T03:16:50.205Z,7.05
2017-07-17T03:17:50.382Z,7
2017-07-17T03:18:50.159Z,7
2017-07-17T03:19:49.838Z,7.01
2017-07-17T03:20:49.829Z,6.99
2017-07-17T03:21:50.139Z,7
2017-07-17T03:22:49.489Z,6.99
2017-07-17T03:23:49.796Z,6.97
2017-07-17T03:24:50.096Z,7.05
2017-07-17T03:25:49.780Z,6.96
2017-07-17T03:26:50.083Z,6.97
2017-07-17T03:27:50.060Z,6.94
2017-07-17T03:28:50.064Z,6.97
2017-07-17T03:29:50.035Z,6.99
2017-07-17T03:30:50.024Z,6.99
2017-07-17T03:31:50.023Z,6.99
2017-07-17T03:32:50.003Z,7.04
2017-07-17T03:33:50.008Z,6.99
2017-07-17T03:34:49.988Z,6.97
2017-07-17T03:35:49.969Z,7.04
2017-07-17T03:36:49.966Z,7.01
2017-07-17T03:37:49.952Z,7.07
2017-07-17T03:38:49.943Z,6.99
2017-07-17T03:39:49.920Z,7.05
2017-07-17T03:40:49.597Z,7.04
2017-07-17T03:41:49.906Z,6.99
2017-07-17T03:42:49.574Z,7.01
2017-07-17T03:43:49.872Z,6.99
2017-07-17T03:44:49.561Z,7.14
2017-07-17T03:45:49.861Z,7.18
2017-07-17T03:46:49.529Z,7.16
2017-07-17T03:47:49.836Z,7.16
2017-07-17T03:48:50.028Z,7.09
2017-07-17T03:49:49.809Z,7.14
2017-07-17T03:50:49.806Z,7.16
2017-07-17T03:51:49.797Z,7.32
2017-07-17T03:52:49.468Z,7.24
2017-07-17T03:53:49.975Z,7.19
2017-07-17T03:54:49.965Z,7.23
2017-07-17T03:55:49.755Z,7.19
2017-07-17T03:56:49.745Z,7.18
2017-07-17T03:57:49.410Z,7.16
2017-07-17T03:58:49.716Z,7.18
2017-07-17T03:59:49.699Z,7.21
2017-07-17T04:00:49.692Z,7.24
2017-07-17T04:01:49.372Z,7.3
2017-07-17T04:02:49.680Z,7.33
2017-07-17T04:03:49.668Z,7.3
2017-07-17T04:04:49.651Z,7.33
2017-07-17T04:05:49.638Z,7.33
2017-07-17T04:06:49.631Z,7.3
2017-07-17T04:07:49.632Z,7.3
2017-07-17T04:08:49.612Z,7.26
2017-07-17T04:09:49.598Z,7.33
2017-07-17T04:10:49.600Z,7.45
2017-07-17T04:11:49.573Z,7.42
2017-07-17T04:12:49.264Z,7.42
2017-07-17T04:13:49.566Z,7.39
2017-07-17T04:14:49.552Z,7.47
2017-07-17T04:15:49.233Z,7.41
2017-07-17T04:16:49.534Z,7.41
2017-07-17T04:17:49.203Z,7.45
2017-07-17T04:18:49.201Z,7.48
2017-07-17T04:19:49.192Z,7.34
2017-07-17T04:20:49.494Z,7.47
2017-07-17T04:21:49.477Z,7.51
2017-07-17T04:22:48.839Z,7.48
2017-07-17T04:23:49.146Z,7.39
2017-07-17T04:24:49.453Z,7.51
2017-07-17T04:25:49.133Z,7.52
2017-07-17T04:26:49.622Z,7.52
2017-07-17T04:27:49.416Z,7.51
2017-07-17T04:28:49.094Z,7.52
2017-07-17T04:29:49.404Z,7.62
2017-07-17T04:30:49.384Z,7.54
2017-07-17T04:31:49.378Z,7.52
2017-07-17T04:32:49.363Z,7.55
2017-07-17T04:33:49.351Z,7.44
2017-07-17T04:34:49.347Z,7.44
2017-07-17T04:35:49.333Z,7.41
2017-07-17T04:36:49.327Z,7.41
2017-07-17T04:37:49.308Z,7.44
2017-07-17T04:38:49.301Z,7.48
2017-07-17T04:39:48.986Z,7.52
2017-07-17T04:40:48.971Z,7.55
2017-07-17T04:41:49.262Z,7.5
2017-07-17T04:42:49.265Z,7.51
2017-07-17T04:43:49.250Z,7.54
2017-07-17T04:44:49.244Z,7.52
2017-07-17T04:45:49.232Z,8.02
2017-07-17T04:46:49.220Z,8.43
2017-07-17T04:47:49.218Z,8.6
2017-07-17T04:48:48.894Z,9
2017-07-17T04:49:49.187Z,9.12
2017-07-17T04:50:49.180Z,9.38
2017-07-17T04:51:49.168Z,9.65
2017-07-17T04:52:49.165Z,9.62
2017-07-17T04:53:49.148Z,9.67
2017-07-17T04:54:49.156Z,9.71
2017-07-17T04:55:49.142Z,9.85
2017-07-17T04:56:49.124Z,10.02
2017-07-17T04:57:48.493Z,10.18
2017-07-17T04:58:49.112Z,10.32
2017-07-17T04:59:49.095Z,10.28
2017-07-17T05:00:48.774Z,10.24
2017-07-17T05:01:49.084Z,10.43
2017-07-17T05:02:49.075Z,10.36
2017-07-17T05:03:49.280Z,10.47
2017-07-17T05:04:49.058Z,10.34
2017-07-17T05:05:49.050Z,10.18
2017-07-17T05:06:48.725Z,10.14
2017-07-17T05:07:48.406Z,10.01
2017-07-17T05:08:49.016Z,9.95
2017-07-17T05:09:49.027Z,9.86
2017-07-17T05:10:48.998Z,9.89
2017-07-17T05:11:48.985Z,10.01
2017-07-17T05:12:48.987Z,10.11
2017-07-17T05:13:48.661Z,10.06
2017-07-17T05:14:48.656Z,10.17
2017-07-17T05:15:48.641Z,10.09
2017-07-17T05:16:48.639Z,10.22
2017-07-17T05:17:48.629Z,10.18
2017-07-17T05:18:48.613Z,10.34
2017-07-17T05:19:48.930Z,10.36
2017-07-17T05:20:48.911Z,10.34
2017-07-17T05:21:48.910Z,10.34
2017-07-17T05:22:48.585Z,10.35
2017-07-17T05:23:48.580Z,10.51
2017-07-17T05:24:48.567Z,10.43
2017-07-17T05:25:48.882Z,10.38
2017-07-17T05:26:48.543Z,10.29
2017-07-17T05:27:48.537Z,10.26
2017-07-17T05:28:48.840Z,10.29
2017-07-17T05:29:48.527Z,10.36
2017-07-17T05:30:48.513Z,10.47
2017-07-17T05:31:48.814Z,10.35
2017-07-17T05:32:48.808Z,10.32
2017-07-17T05:33:48.804Z,10.36
2017-07-17T05:34:48.785Z,10.24
2017-07-17T05:35:48.780Z,10.51
2017-07-17T05:36:48.772Z,10.34
2017-07-17T05:37:48.815Z,10.32
2017-07-17T05:38:48.773Z,10.52
2017-07-17T05:39:48.744Z,10.51
2017-07-17T05:40:48.747Z,10.52
2017-07-17T05:41:48.425Z,10.47
2017-07-17T05:42:48.737Z,10.36
2017-07-17T05:43:48.406Z,10.57
2017-07-17T05:44:48.753Z,10.69
2017-07-17T05:45:48.691Z,10.66
2017-07-17T05:46:48.682Z,10.66
2017-07-17T05:47:48.681Z,10.66
2017-07-17T05:48:48.669Z,10.6
2017-07-17T05:49:48.346Z,10.66
2017-07-17T05:50:48.652Z,10.65
2017-07-17T05:51:48.636Z,10.68
2017-07-17T05:52:48.643Z,10.63
2017-07-17T05:53:48.314Z,10.73
2017-07-17T05:54:48.620Z,10.6
2017-07-17T05:55:48.617Z,10.6
2017-07-17T05:56:48.605Z,10.68
2017-07-17T05:57:48.585Z,10.65
2017-07-17T05:58:48.265Z,10.83
2017-07-17T05:59:48.578Z,10.93
2017-07-17T06:00:48.559Z,11.09
2017-07-17T06:01:48.557Z,10.91
2017-07-17T06:02:48.541Z,11.13
2017-07-17T06:03:48.534Z,11.41
2017-07-17T06:04:48.534Z,11.6
2017-07-17T06:05:48.529Z,11.54
2017-07-17T06:06:48.203Z,11.75
2017-07-17T06:07:48.514Z,11.7
2017-07-17T06:08:48.502Z,11.74
2017-07-17T06:09:48.488Z,11.75
2017-07-17T06:10:48.472Z,11.64
2017-07-17T06:11:48.479Z,11.75
2017-07-17T06:12:48.473Z,11.82
2017-07-17T06:13:48.459Z,12.01
2017-07-17T06:14:48.132Z,12.3
2017-07-17T06:15:48.134Z,12.18
2017-07-17T06:16:48.438Z,12.11
2017-07-17T06:17:48.418Z,12.18
2017-07-17T06:18:48.414Z,12.01
2017-07-17T06:19:48.403Z,12.11
2017-07-17T06:20:48.411Z,12.12
2017-07-17T06:21:48.402Z,12.21
2017-07-17T06:22:47.764Z,12.19
2017-07-17T06:23:48.071Z,12.38
2017-07-17T06:24:48.424Z,12.37
2017-07-17T06:25:48.373Z,12.54
2017-07-17T06:26:48.051Z,12.69
2017-07-17T06:27:48.346Z,12.73
2017-07-17T06:28:48.336Z,12.55
2017-07-17T06:29:48.037Z,12.56
2017-07-17T06:30:48.332Z,12.59
2017-07-17T06:31:48.317Z,12.3
2017-07-17T06:32:48.310Z,12.18
2017-07-17T06:33:47.993Z,12.18
2017-07-17T06:34:48.301Z,12.03
2017-07-17T06:35:47.990Z,11.81
2017-07-17T06:36:47.977Z,11.79
2017-07-17T06:37:48.294Z,11.79
2017-07-17T06:38:48.279Z,11.96
2017-07-17T06:39:48.266Z,12.15
2017-07-17T06:40:48.256Z,12.11
2017-07-17T06:41:48.252Z,12.01
2017-07-17T06:42:48.241Z,11.93
2017-07-17T06:43:48.241Z,12.01
2017-07-17T06:44:48.229Z,12.21
2017-07-17T06:45:47.909Z,12.41
2017-07-17T06:46:47.907Z,12.3
2017-07-17T06:47:48.218Z,12.12
2017-07-17T06:48:47.885Z,12.38
2017-07-17T06:49:47.887Z,12.31
2017-07-17T06:50:47.872Z,12.29
2017-07-17T06:51:48.170Z,12.37
2017-07-17T06:52:48.205Z,12.4
2017-07-17T06:53:48.165Z,12.23
2017-07-17T06:54:47.849Z,12.19
2017-07-17T06:55:48.154Z,12.21
2017-07-17T06:56:48.133Z,12.21
2017-07-17T06:57:48.137Z,11.9
2017-07-17T06:58:48.121Z,11.96
2017-07-17T06:59:48.125Z,12.13
2017-07-17T07:00:48.117Z,12.13
2017-07-17T07:01:47.801Z,12.21
2017-07-17T07:02:48.091Z,12.33
2017-07-17T07:03:47.776Z,12.04
2017-07-17T07:04:47.772Z,12.12
2017-07-17T07:05:48.080Z,12.03
2017-07-17T07:06:48.079Z,12.16
2017-07-17T07:07:48.081Z,12.3
2017-07-17T07:08:47.738Z,12.37
2017-07-17T07:09:48.054Z,12.38
2017-07-17T07:10:48.044Z,12.13
2017-07-17T07:11:48.043Z,12.15
2017-07-17T07:12:47.717Z,12.15
2017-07-17T07:16:11.163Z,12.19
2017-07-17T07:17:10.858Z,12.4
2017-07-17T07:18:10.845Z,12.41
2017-07-17T07:19:10.844Z,12.48
2017-07-17T07:20:11.346Z,12.41
2017-07-17T07:21:11.135Z,12.34
2017-07-17T07:22:10.809Z,12.05
2017-07-17T07:23:11.147Z,12.16
2017-07-17T07:24:10.799Z,12.31
2017-07-17T07:25:10.789Z,12.19
2017-07-17T07:26:10.789Z,12.23
2017-07-17T07:27:10.771Z,12.18
2017-07-17T07:28:11.079Z,12.21
2017-07-17T07:29:11.070Z,12.38
2017-07-17T07:30:11.083Z,12.46
2017-07-17T07:31:10.749Z,12.52
2017-07-17T07:32:10.432Z,12.31
2017-07-17T07:33:11.049Z,12.18
2017-07-17T07:34:11.037Z,12.46
2017-07-17T07:35:11.026Z,12.46
2017-07-17T07:36:11.026Z,12.21
2017-07-17T07:37:11.007Z,12.43
2017-07-17T07:38:10.705Z,12.52
2017-07-17T07:39:10.994Z,12.63
2017-07-17T07:40:10.678Z,12.66
2017-07-17T07:41:10.991Z,12.8
2017-07-17T07:42:10.985Z,12.89
2017-07-17T07:43:10.973Z,12.61
2017-07-17T07:44:10.972Z,12.66
2017-07-17T07:45:10.956Z,12.59
2017-07-17T07:46:10.959Z,12.59
2017-07-17T07:47:10.325Z,12.59
2017-07-17T07:48:10.628Z,12.21
2017-07-17T07:49:10.613Z,12.4
2017-07-17T07:50:10.923Z,12.37
2017-07-17T07:51:10.299Z,12.44
2017-07-17T07:52:10.284Z,12.55
2017-07-17T07:53:10.282Z,12.41
2017-07-17T07:54:10.895Z,12.58
2017-07-17T07:55:10.580Z,12.41
2017-07-17T07:56:10.888Z,12.52
2017-07-17T07:57:10.874Z,12.62
2017-07-17T07:58:10.866Z,12.73
2017-07-17T07:59:10.853Z,12.79
2017-07-17T08:00:10.863Z,12.89
2017-07-17T08:01:11.058Z,13.04
2017-07-17T08:02:10.215Z,13.14
2017-07-17T08:03:10.840Z,12.89
2017-07-17T08:04:10.829Z,13.13
2017-07-17T08:05:10.826Z,13.09
2017-07-17T08:06:10.809Z,13.14
2017-07-17T08:07:10.996Z,13.06
2017-07-17T08:08:10.489Z,13.1
2017-07-17T08:09:10.483Z,13.21
2017-07-17T08:10:10.823Z,13.03
2017-07-17T08:11:10.676Z,13.17
2017-07-17T08:12:10.801Z,12.99
2017-07-17T08:13:10.136Z,13.07
2017-07-17T08:14:10.440Z,13.17
2017-07-17T08:15:10.745Z,13.19
2017-07-17T08:16:10.742Z,13.28
2017-07-17T08:17:10.741Z,13.38
2017-07-17T08:18:10.719Z,13.28
2017-07-17T08:19:10.411Z,13.25
2017-07-17T08:20:10.409Z,12.95
2017-07-17T08:21:10.401Z,12.8
2017-07-17T08:22:10.077Z,13.03
2017-07-17T08:23:10.697Z,13.32
2017-07-17T08:24:10.689Z,13.19
2017-07-17T08:25:10.679Z,13.13
2017-07-17T08:26:10.675Z,13.28
2017-07-17T08:27:10.674Z,13.43
2017-07-17T08:28:10.654Z,13.57
2017-07-17T08:29:10.345Z,13.38
2017-07-17T08:30:10.648Z,13.63
2017-07-17T08:31:10.645Z,13.79
2017-07-17T08:32:10.631Z,13.86
2017-07-17T08:33:10.643Z,13.79
2017-07-17T08:34:10.315Z,13.94
2017-07-17T08:35:10.658Z,14.04
2017-07-17T08:36:10.600Z,14.19
2017-07-17T08:37:10.287Z,13.94
2017-07-17T08:38:10.291Z,13.86
2017-07-17T08:39:10.598Z,13.99
2017-07-17T08:40:10.479Z,13.88
2017-07-17T08:41:10.578Z,13.72
2017-07-17T08:42:10.257Z,13.71
2017-07-17T08:43:10.562Z,13.69
2017-07-17T08:44:10.554Z,13.84
2017-07-17T08:45:10.555Z,13.8
2017-07-17T08:46:10.543Z,13.96
2017-07-17T08:47:10.232Z,14.02
2017-07-17T08:48:10.220Z,13.71
2017-07-17T08:49:10.527Z,13.46
2017-07-17T08:50:10.531Z,13.61
2017-07-17T08:51:10.196Z,13.72
2017-07-17T08:52:10.505Z,13.73
2017-07-17T08:53:09.876Z,13.91
2017-07-17T08:54:10.498Z,13.75
2017-07-17T08:55:10.173Z,13.57
2017-07-17T08:56:10.175Z,13.57
2017-07-17T08:57:10.170Z,13.53
2017-07-17T08:58:10.162Z,13.66
2017-07-17T08:59:10.463Z,13.63
2017-07-17T09:00:10.148Z,13.55
2017-07-17T09:01:10.450Z,13.43
2017-07-17T09:02:10.132Z,13.73
2017-07-17T09:03:10.440Z,13.63
2017-07-17T09:04:10.127Z,13.66
2017-07-17T09:05:10.427Z,13.57
2017-07-17T09:06:10.421Z,13.68
2017-07-17T09:07:10.105Z,13.87
2017-07-17T09:08:10.094Z,13.98
2017-07-17T09:09:10.089Z,13.99
2017-07-17T09:10:10.403Z,13.98
2017-07-17T09:11:10.390Z,13.99
2017-07-17T09:12:10.376Z,14.16
2017-07-17T09:13:10.381Z,14.21
2017-07-17T09:14:10.060Z,14.04
2017-07-17T09:15:10.363Z,13.91
2017-07-17T09:16:10.351Z,13.73
2017-07-17T09:17:09.735Z,13.66
2017-07-17T09:18:10.341Z,13.61
2017-07-17T09:19:10.339Z,13.43
2017-07-17T09:20:10.027Z,13.44
2017-07-17T09:21:10.544Z,13.55
2017-07-17T09:22:09.701Z,13.44
2017-07-17T09:23:09.998Z,13.65
2017-07-17T09:24:10.305Z,13.39
2017-07-17T09:25:10.500Z,13.22
2017-07-17T09:26:10.304Z,13.22
2017-07-17T09:27:10.305Z,13.39
2017-07-17T09:28:10.297Z,13.29
2017-07-17T09:29:10.276Z,13.28
2017-07-17T09:30:10.267Z,13.19
2017-07-17T09:31:10.466Z,13.27
2017-07-17T09:32:10.252Z,13.29
2017-07-17T09:33:10.243Z,13.39
2017-07-17T09:34:09.942Z,13.68
2017-07-17T09:35:10.255Z,13.8
2017-07-17T09:36:10.231Z,13.43
2017-07-17T09:37:10.227Z,13.69
2017-07-17T09:38:10.215Z,13.69
2017-07-17T09:39:10.218Z,13.79
2017-07-17T09:40:10.201Z,13.93
2017-07-17T09:41:09.576Z,13.75
2017-07-17T09:42:09.891Z,13.79
2017-07-17T09:43:10.198Z,13.9
2017-07-17T09:44:09.567Z,13.38
2017-07-17T09:45:10.174Z,13.41
2017-07-17T09:46:10.171Z,13.36
2017-07-17T09:47:10.168Z,13.43
2017-07-17T09:48:10.162Z,13.57
2017-07-17T09:49:09.727Z,13.44
2017-07-17T09:50:10.145Z,13.86
2017-07-17T09:51:10.151Z,13.79
2017-07-17T09:52:09.814Z,13.98
2017-07-17T09:53:10.129Z,13.79
2017-07-17T09:54:10.327Z,13.76
2017-07-17T09:55:10.113Z,13.38
2017-07-17T09:56:10.111Z,13.55
2017-07-17T09:57:10.100Z,13.57
2017-07-17T09:58:09.480Z,13.76
2017-07-17T09:59:09.467Z,14.12
2017-07-17T10:00:10.086Z,13.9
2017-07-17T10:01:09.454Z,13.72
2017-07-17T10:02:09.455Z,13.68
2017-07-17T10:03:09.760Z,13.73
2017-07-17T10:04:10.062Z,13.75
2017-07-17T10:05:09.740Z,13.93
2017-07-17T10:06:10.051Z,14.01
2017-07-17T10:07:09.730Z,13.61
2017-07-17T10:08:10.032Z,13.51
2017-07-17T10:09:10.036Z,13.68
2017-07-17T10:10:09.707Z,13.96
2017-07-17T10:11:09.698Z,14.39
2017-07-17T10:12:09.706Z,14.54
2017-07-17T10:13:09.691Z,13.94
2017-07-17T10:14:10.006Z,14.04
2017-07-17T10:15:09.685Z,14.21
2017-07-17T10:16:09.681Z,14.17
2017-07-17T10:17:09.670Z,14.36
2017-07-17T10:18:09.986Z,14.63
2017-07-17T10:19:09.658Z,14.8
2017-07-17T10:20:09.649Z,14.42
2017-07-17T10:21:09.957Z,14.2
2017-07-17T10:22:09.644Z,14.13
2017-07-17T10:23:09.632Z,14.82
2017-07-17T10:24:09.669Z,15.74
2017-07-17T10:25:09.622Z,16.27
2017-07-17T10:26:09.617Z,17.09
2017-07-17T10:27:09.916Z,16.42
2017-07-17T10:28:09.923Z,15.84
2017-07-17T10:29:09.605Z,15.13
2017-07-17T10:30:09.907Z,14.93
2017-07-17T10:31:09.900Z,14.98
2017-07-17T10:32:09.900Z,14.69
2017-07-17T10:33:09.893Z,14.71
2017-07-17T10:34:23.521Z,14.64
2017-07-17T10:35:09.877Z,14.75
2017-07-17T10:36:09.253Z,14.83
2017-07-17T10:37:09.563Z,14.94
2017-07-17T10:38:09.245Z,14.48
2017-07-17T10:39:10.067Z,14.75
2017-07-17T10:40:10.064Z,15.18
2017-07-17T10:41:09.855Z,14.85
2017-07-17T10:42:09.533Z,14.85
2017-07-17T10:43:09.829Z,14.48
2017-07-17T10:44:09.839Z,14.54
2017-07-17T10:45:10.025Z,14.94
2017-07-17T10:46:09.816Z,15.11
2017-07-17T10:47:09.816Z,15.11
2017-07-17T10:48:09.819Z,14.78
2017-07-17T10:49:09.811Z,14.39
2017-07-17T10:50:09.500Z,14.61
2017-07-17T10:51:09.796Z,14.54
2017-07-17T10:52:09.793Z,14.83
2017-07-17T10:53:09.793Z,14.9
2017-07-17T10:54:09.473Z,14.85
2017-07-17T10:55:09.469Z,14.75
2017-07-17T10:56:09.774Z,14.9
2017-07-17T10:57:09.462Z,15.16
2017-07-17T10:58:09.760Z,15.34
2017-07-17T10:59:09.751Z,15.23
2017-07-17T11:00:09.442Z,15.27
2017-07-17T11:01:09.751Z,15.4
2017-07-17T11:02:09.115Z,15.19
2017-07-17T11:03:09.733Z,15.25
2017-07-17T11:04:09.423Z,15.51
2017-07-17T11:05:09.415Z,15.53
2017-07-17T11:06:09.773Z,15.48
2017-07-17T11:07:09.403Z,15.7
2017-07-17T11:08:09.097Z,15.95
2017-07-17T11:09:09.714Z,15.77
2017-07-17T11:10:09.700Z,15.49
2017-07-17T11:11:09.696Z,15.6
2017-07-17T11:12:09.386Z,15.37
2017-07-17T11:13:09.706Z,15.43
2017-07-17T11:14:09.060Z,15.01
2017-07-17T11:15:09.368Z,15.19
2017-07-17T11:16:09.364Z,15.18
2017-07-17T11:17:09.680Z,15.09
2017-07-17T11:19:09.675Z,15.6
2017-07-17T11:20:09.665Z,15.07
2017-07-17T11:21:09.644Z,15.12
2017-07-17T11:22:09.645Z,15.23
2017-07-17T11:23:09.640Z,15.48
2017-07-17T11:24:09.321Z,15.34
2017-07-17T11:25:09.321Z,15.12
2017-07-17T11:26:09.319Z,15.15
2017-07-17T11:27:09.003Z,14.91
2017-07-17T11:28:09.613Z,14.86
2017-07-17T11:29:09.614Z,14.82
2017-07-17T11:30:08.982Z,14.86
2017-07-17T11:31:09.294Z,15.09
2017-07-17T11:32:09.290Z,15.28
2017-07-17T11:33:08.974Z,15.44
2017-07-17T11:34:09.274Z,15.59
2017-07-17T11:35:09.596Z,15.38
2017-07-17T11:36:09.578Z,15.41
2017-07-17T11:37:09.574Z,15.6
2017-07-17T11:38:08.942Z,15.68
2017-07-17T11:39:09.253Z,15.76
2017-07-17T11:40:09.557Z,15.64
2017-07-17T11:41:09.560Z,15.46
2017-07-17T11:42:08.927Z,15.46
2017-07-17T11:43:09.548Z,15.25
2017-07-17T11:44:09.556Z,15.38
2017-07-17T11:45:08.913Z,15.55
2017-07-17T11:56:36.839Z,15.74
2017-07-17T11:58:36.810Z,15.85
2017-07-17T11:59:36.824Z,15.92
2017-07-17T12:00:36.814Z,15.96
2017-07-17T12:01:36.800Z,15.98
2017-07-17T12:02:36.807Z,15.93
2017-07-17T12:03:36.483Z,15.76
2017-07-17T12:04:36.780Z,16.17
2017-07-17T12:06:36.774Z,16.23
2017-07-17T12:07:36.784Z,16.25
2017-07-17T12:08:36.786Z,16.11
2017-07-17T12:09:36.770Z,16.16
2017-07-17T12:10:36.451Z,16.75
2017-07-17T12:11:36.773Z,16.81
2017-07-17T12:12:36.752Z,16.27
2017-07-17T12:13:36.751Z,15.99
2017-07-17T12:14:36.443Z,16.54
2017-07-17T12:15:36.747Z,16.78
2017-07-17T12:16:36.432Z,16.84
2017-07-17T12:17:36.428Z,17.05
2017-07-17T12:18:36.425Z,16.87
2017-07-17T12:19:36.714Z,16.72
2017-07-17T12:20:36.721Z,16.75
2017-07-17T12:21:36.707Z,16.4
2017-07-17T12:22:36.717Z,15.99
2017-07-17T12:23:36.712Z,15.41
2017-07-17T12:24:36.693Z,15.93
2017-07-17T12:25:36.691Z,15.76
2017-07-17T12:26:36.693Z,15.18
2017-07-17T12:27:36.374Z,14.83
2017-07-17T12:28:36.378Z,14.9
2017-07-17T12:29:36.691Z,14.67
2017-07-17T12:30:36.682Z,14.29
2017-07-17T12:31:36.667Z,14.83
2017-07-17T12:32:36.672Z,15.07
2017-07-17T12:33:36.666Z,14.93
2017-07-17T12:34:36.669Z,14.64
2017-07-17T12:35:36.645Z,14.93
2017-07-17T12:36:36.337Z,15.25
2017-07-17T12:37:36.641Z,15.28
2017-07-17T12:38:36.325Z,15.27
2017-07-17T12:39:36.618Z,15.2
2017-07-17T12:40:36.623Z,15.16
2017-07-17T12:41:36.619Z,14.64
2017-07-17T12:42:36.303Z,14.75
2017-07-17T12:43:36.294Z,14.94
2017-07-17T12:44:36.599Z,15.19
2017-07-17T12:45:36.604Z,14.69
2017-07-17T12:46:36.585Z,14.87
2017-07-17T12:47:36.582Z,15.11
2017-07-17T12:48:36.577Z,15.55
2017-07-17T12:49:35.950Z,16.1
2017-07-17T12:50:36.591Z,14.87
2017-07-17T12:51:36.562Z,14.21
2017-07-17T12:52:36.559Z,14.39
2017-07-17T12:53:36.244Z,14.49
2017-07-17T12:54:36.576Z,14.66
2017-07-17T12:55:36.228Z,15.74
2017-07-17T12:56:36.541Z,15.96
2017-07-17T12:57:36.521Z,16.73
2017-07-17T12:58:36.517Z,16.54
2017-07-17T12:59:36.524Z,15.98
2017-07-17T13:00:36.505Z,15.27
2017-07-17T13:01:36.200Z,14.71
2017-07-17T13:02:36.512Z,15.18
2017-07-17T13:03:36.500Z,15.71
2017-07-17T13:04:36.191Z,16.13
2017-07-17T13:05:36.493Z,16.07
2017-07-17T13:06:36.481Z,16.17
2017-07-17T13:07:36.478Z,16.69
2017-07-17T13:08:36.476Z,16.9
2017-07-17T13:09:36.464Z,16.13
2017-07-17T13:10:36.473Z,16.26
2017-07-17T13:11:36.457Z,15.88
2017-07-17T13:12:36.460Z,15.31
2017-07-17T13:13:36.489Z,15.4
2017-07-17T13:14:36.123Z,16.01
2017-07-17T13:15:36.431Z,16.07
2017-07-17T13:16:36.434Z,16.45
2017-07-17T13:17:36.429Z,16.88
2017-07-17T13:18:36.427Z,16.66
2017-07-17T13:19:36.426Z,17.09
2017-07-17T13:20:36.415Z,18.26
2017-07-17T13:21:36.094Z,18.39